createdAt,value
2022-08-22T00:02:02.931Z,2.42
2022-08-22T00:02:57.730Z,2.03
2022-08-22T00:03:02.026Z,2.88
2022-08-22T00:03:10.387Z,2.05
2022-08-22T00:05:22.932Z,2.17
2022-08-22T00:08:59.168Z,2.00
2022-08-22T00:12:12.617Z,1.88
2022-08-22T00:15:42.014Z,2.33
2022-08-22T00:18:53.599Z,2.00
2022-08-22T00:22:02.086Z,2.15
2022-08-22T00:25:46.446Z,2.25
2022-08-22T00:28:55.881Z,1.95
2022-08-22T00:32:06.976Z,1.88
2022-08-22T00:35:34.827Z,2.00
2022-08-22T00:38:45.239Z,2.17
2022-08-22T00:42:31.666Z,1.83
2022-08-22T00:46:11.013Z,1.60
2022-08-22T00:49:33.051Z,1.95
2022-08-22T00:53:07.326Z,1.73
2022-08-22T00:56:47.175Z,1.80
2022-08-22T01:00:22.876Z,2.20
2022-08-22T01:03:49.640Z,1.65
2022-08-22T01:06:54.534Z,1.98
2022-08-22T01:10:04.294Z,1.90
2022-08-22T01:13:10.600Z,1.70
2022-08-22T01:16:41.820Z,1.70
2022-08-22T01:19:55.514Z,2.03
2022-08-22T01:23:18.869Z,1.80
2022-08-22T01:26:39.397Z,1.35
2022-08-22T01:30:01.520Z,1.67
2022-08-22T01:33:37.236Z,1.40
2022-08-22T01:37:09.958Z,1.77
2022-08-22T01:40:53.382Z,2.22
2022-08-22T01:44:10.934Z,1.65
2022-08-22T01:47:43.455Z,1.85
2022-08-22T01:50:48.240Z,1.63
2022-08-22T01:54:12.133Z,1.80
2022-08-22T01:57:14.718Z,1.98
2022-08-22T02:00:19.578Z,1.70
2022-08-22T02:04:07.742Z,1.50
2022-08-22T02:07:21.672Z,1.58
2022-08-22T02:10:50.929Z,1.92
2022-08-22T02:14:24.585Z,1.60
2022-08-22T02:17:32.373Z,1.80
2022-08-22T02:20:53.087Z,1.63
2022-08-22T02:23:59.767Z,1.50
2022-08-22T02:27:23.625Z,1.65
2022-08-22T02:30:45.512Z,1.42
2022-08-22T02:33:57.675Z,1.42
2022-08-22T02:37:25.702Z,1.60
2022-08-22T02:40:52.979Z,1.40
2022-08-22T02:44:01.527Z,1.55
2022-08-22T02:47:12.601Z,1.60
2022-08-22T02:50:39.735Z,1.70
2022-08-22T02:53:47.573Z,1.38
2022-08-22T02:57:20.161Z,1.70
2022-08-22T03:00:33.193Z,1.70
2022-08-22T03:03:41.962Z,1.38
2022-08-22T03:07:10.101Z,1.88
2022-08-22T03:10:20.307Z,1.40
2022-08-22T03:13:33.524Z,1.63
2022-08-22T03:16:38.636Z,1.35
2022-08-22T03:19:50.259Z,1.50
2022-08-22T03:23:02.347Z,1.13
2022-08-22T03:26:17.379Z,1.48
2022-08-22T03:29:49.964Z,1.50
2022-08-22T03:33:19.946Z,1.52
2022-08-22T03:36:28.328Z,1.30
2022-08-22T03:39:55.298Z,1.75
2022-08-22T03:43:06.507Z,1.25
2022-08-22T03:46:52.747Z,1.83
2022-08-22T03:50:20.978Z,1.20
2022-08-22T03:53:28.795Z,1.60
2022-08-22T03:56:57.445Z,1.60
2022-08-22T04:00:25.848Z,1.55
2022-08-22T04:03:57.035Z,1.35
2022-08-22T04:07:15.792Z,1.50
2022-08-22T04:10:33.572Z,1.45
2022-08-22T04:13:55.856Z,1.60
2022-08-22T04:17:14.475Z,1.55
2022-08-22T04:20:44.393Z,1.35
2022-08-22T04:24:09.080Z,1.58
2022-08-22T04:27:21.895Z,1.20
2022-08-22T04:30:35.279Z,1.27
2022-08-22T04:34:12.646Z,1.67
2022-08-22T04:37:20.689Z,1.40
2022-08-22T04:40:50.283Z,1.40
2022-08-22T04:44:01.717Z,1.38
2022-08-22T04:47:26.920Z,1.20
2022-08-22T04:50:30.900Z,1.38
2022-08-22T04:53:32.636Z,1.55
2022-08-22T04:56:56.100Z,1.42
2022-08-22T05:00:06.359Z,1.08
2022-08-22T05:03:12.880Z,1.45
2022-08-22T05:06:18.962Z,1.80
2022-08-22T05:09:27.154Z,1.52
2022-08-22T05:12:35.041Z,1.35
2022-08-22T05:15:44.142Z,1.13
2022-08-22T05:18:51.365Z,1.55
2022-08-22T05:21:53.460Z,1.98
2022-08-22T05:25:03.721Z,1.30
2022-08-22T05:28:28.563Z,1.50
2022-08-22T05:31:37.677Z,1.55
2022-08-22T05:34:43.046Z,1.50
2022-08-22T05:37:48.207Z,1.60
2022-08-22T05:40:57.315Z,1.35
2022-08-22T05:43:59.829Z,1.50
2022-08-22T05:47:36.899Z,1.65
2022-08-22T05:50:43.211Z,1.42
2022-08-22T05:53:51.225Z,1.35
2022-08-22T05:57:16.146Z,1.90
2022-08-22T06:00:25.645Z,1.40
2022-08-22T06:03:36.391Z,1.70
2022-08-22T06:06:56.121Z,1.65
2022-08-22T06:10:27.108Z,1.23
2022-08-22T06:13:34.719Z,1.30
2022-08-22T06:16:48.618Z,1.48
2022-08-22T06:19:53.162Z,1.30
2022-08-22T06:22:59.353Z,1.27
2022-08-22T06:26:01.878Z,1.42
2022-08-22T06:29:07.275Z,1.20
2022-08-22T06:32:15.848Z,1.27
2022-08-22T06:35:56.888Z,1.23
2022-08-22T06:39:24.540Z,1.13
2022-08-22T06:42:31.035Z,1.55
2022-08-22T06:45:33.251Z,1.27
2022-08-22T06:48:36.617Z,1.35
2022-08-22T06:51:39.423Z,1.77
2022-08-22T06:54:51.519Z,1.17
2022-08-22T06:58:03.900Z,1.33
2022-08-22T07:01:12.687Z,1.38
2022-08-22T07:04:15.875Z,1.80
2022-08-22T07:07:20.044Z,1.27
2022-08-22T07:10:24.199Z,1.55
2022-08-22T07:13:28.260Z,1.48
2022-08-22T07:16:52.132Z,1.63
2022-08-22T07:20:07.278Z,1.50
2022-08-22T07:23:23.041Z,1.42
2022-08-22T07:26:57.552Z,1.45
2022-08-22T07:30:27.262Z,1.27
2022-08-22T07:33:48.278Z,1.50
2022-08-22T07:37:18.165Z,1.30
2022-08-22T07:40:39.327Z,1.38
2022-08-22T07:43:54.976Z,1.40
2022-08-22T07:47:13.099Z,1.45
2022-08-22T07:50:24.470Z,1.40
2022-08-22T07:53:26.431Z,1.45
2022-08-22T07:56:34.680Z,1.48
2022-08-22T07:59:42.511Z,1.30
2022-08-22T08:02:54.367Z,1.42
2022-08-22T08:05:56.612Z,1.17
2022-08-22T08:08:58.961Z,1.30
2022-08-22T08:12:03.763Z,1.20
2022-08-22T08:15:09.968Z,1.38
2022-08-22T08:18:23.361Z,1.70
2022-08-22T08:21:33.594Z,1.40
2022-08-22T08:24:43.659Z,1.52
2022-08-22T08:28:05.719Z,1.23
2022-08-22T08:31:29.262Z,1.33
2022-08-22T08:34:35.459Z,1.73
2022-08-22T08:38:01.591Z,1.85
2022-08-22T08:41:24.525Z,1.60
2022-08-22T08:44:37.973Z,1.15
2022-08-22T08:48:01.086Z,1.30
2022-08-22T08:51:18.499Z,1.92
2022-08-22T08:54:49.163Z,1.83
2022-08-22T08:57:51.498Z,2.42
2022-08-22T09:01:19.556Z,1.40
2022-08-22T09:04:41.492Z,1.35
2022-08-22T09:07:56.435Z,1.70
2022-08-22T09:11:58.313Z,1.45
2022-08-22T09:15:14.145Z,1.50
2022-08-22T09:18:19.249Z,1.23
2022-08-22T09:21:50.126Z,1.30
2022-08-22T09:25:09.981Z,1.65
2022-08-22T09:28:15.866Z,2.00
2022-08-22T09:31:51.514Z,1.50
2022-08-22T09:35:08.009Z,1.25
2022-08-22T09:38:48.274Z,1.30
2022-08-22T09:42:02.928Z,1.42
2022-08-22T09:45:47.177Z,1.40
2022-08-22T09:48:58.991Z,1.80
2022-08-22T09:52:38.604Z,1.52
2022-08-22T09:55:51.241Z,2.08
2022-08-22T09:59:09.815Z,1.67
2022-08-22T10:02:44.722Z,1.70
2022-08-22T10:06:01.221Z,1.70
2022-08-22T10:09:16.358Z,1.92
2022-08-22T10:12:33.863Z,1.58
2022-08-22T10:15:40.107Z,2.10
2022-08-22T10:18:53.276Z,2.47
2022-08-22T10:22:18.453Z,2.10
2022-08-22T10:25:33.378Z,1.60
2022-08-22T10:28:51.018Z,1.80
2022-08-22T10:32:07.759Z,1.77
2022-08-22T10:35:20.975Z,2.05
2022-08-22T10:38:43.986Z,1.63
2022-08-22T10:42:35.458Z,1.80
2022-08-22T10:45:43.544Z,1.58
2022-08-22T10:48:58.214Z,1.80
2022-08-22T10:52:15.483Z,2.17
2022-08-22T10:58:30.066Z,2.03
2022-08-22T11:01:42.164Z,2.10
2022-08-22T11:05:02.458Z,2.30
2022-08-22T11:08:21.582Z,2.35
2022-08-22T11:11:54.117Z,2.53
2022-08-22T11:15:35.352Z,3.25
2022-08-22T11:18:42.945Z,2.63
2022-08-22T11:22:38.842Z,2.72
2022-08-22T11:26:29.328Z,2.25
2022-08-22T11:29:53.824Z,2.22
2022-08-22T11:33:02.201Z,2.47
2022-08-22T11:36:31.444Z,2.40
2022-08-22T11:39:52.190Z,2.30
2022-08-22T11:43:18.369Z,2.67
2022-08-22T11:46:25.611Z,2.30
2022-08-22T11:49:45.243Z,2.20
2022-08-22T11:53:14.468Z,2.78
2022-08-22T11:56:37.439Z,2.33
2022-08-22T11:59:47.728Z,2.40
2022-08-22T12:03:34.345Z,2.40
2022-08-22T12:06:49.738Z,2.55
2022-08-22T12:10:06.720Z,2.72
2022-08-22T12:13:35.483Z,2.75
2022-08-22T12:17:02.959Z,3.83
2022-08-22T12:20:38.497Z,3.70
2022-08-22T12:24:19.150Z,4.03
2022-08-22T12:27:50.608Z,4.05
2022-08-22T12:31:00.049Z,4.68
2022-08-22T12:34:48.151Z,4.93
2022-08-22T12:37:52.300Z,4.80
2022-08-22T12:40:54.999Z,5.00
2022-08-22T12:44:06.583Z,5.28
2022-08-22T12:47:22.769Z,6.10
2022-08-22T12:50:45.558Z,5.38
2022-08-22T12:53:53.183Z,5.43
2022-08-22T12:57:04.201Z,5.25
2022-08-22T13:00:29.359Z,5.15
2022-08-22T13:03:54.080Z,5.50
2022-08-22T13:07:06.544Z,5.47
2022-08-22T13:10:14.092Z,5.20
2022-08-22T13:13:56.729Z,5.60
2022-08-22T13:17:10.017Z,5.18
2022-08-22T13:20:32.097Z,4.70
2022-08-22T13:23:51.543Z,5.10
2022-08-22T13:27:08.952Z,4.90
2022-08-22T13:30:38.667Z,4.97
2022-08-22T13:33:47.639Z,4.60
2022-08-22T13:36:54.853Z,5.10
2022-08-22T13:40:07.456Z,5.22
2022-08-22T13:43:12.847Z,4.88
2022-08-22T13:46:25.740Z,4.88
2022-08-22T13:49:35.781Z,4.88
2022-08-22T13:52:55.216Z,5.37
2022-08-22T13:56:06.421Z,5.35
2022-08-22T13:59:52.474Z,5.18
2022-08-22T14:03:32.130Z,4.73
2022-08-22T14:06:56.491Z,4.90
2022-08-22T14:10:14.858Z,4.70
2022-08-22T14:13:31.731Z,4.80
2022-08-22T14:16:47.355Z,4.30
2022-08-22T14:20:02.870Z,4.80
2022-08-22T14:23:10.412Z,5.22
2022-08-22T14:26:32.862Z,4.25
2022-08-22T14:29:52.600Z,4.03
2022-08-22T14:33:13.755Z,4.65
2022-08-22T14:36:41.915Z,3.85
2022-08-22T14:39:49.958Z,4.07
2022-08-22T14:43:22.445Z,4.35
2022-08-22T14:46:33.589Z,4.22
2022-08-22T14:49:57.575Z,3.92
2022-08-22T14:53:29.871Z,4.45
2022-08-22T14:56:32.742Z,4.45
2022-08-22T14:59:50.260Z,4.13
2022-08-22T15:02:53.054Z,4.60
2022-08-22T15:06:08.579Z,3.80
2022-08-22T15:12:33.817Z,4.40
2022-08-22T15:15:52.537Z,3.40
2022-08-22T15:18:57.216Z,4.15
2022-08-22T15:22:22.200Z,3.45
2022-08-22T15:25:37.591Z,4.38
2022-08-22T15:28:53.043Z,4.38
2022-08-22T15:32:00.147Z,4.65
2022-08-22T15:35:16.070Z,3.95
2022-08-22T15:38:27.658Z,4.07
2022-08-22T15:41:36.354Z,3.67
2022-08-22T15:44:44.312Z,3.75
2022-08-22T15:47:52.269Z,3.72
2022-08-22T15:51:00.120Z,4.22
2022-08-22T15:54:16.428Z,3.65
2022-08-22T15:57:31.532Z,3.60
2022-08-22T16:00:43.856Z,4.10
2022-08-22T16:04:06.455Z,3.58
2022-08-22T16:07:26.257Z,3.65
2022-08-22T16:10:32.250Z,3.60
2022-08-22T16:13:39.451Z,3.28
2022-08-22T16:16:51.090Z,3.67
2022-08-22T16:20:07.850Z,3.53
2022-08-22T16:23:11.829Z,3.38
2022-08-22T16:26:36.823Z,3.13
2022-08-22T16:29:41.900Z,3.35
2022-08-22T16:32:53.062Z,3.08
2022-08-22T16:36:16.676Z,3.25
2022-08-22T16:39:21.500Z,3.10
2022-08-22T16:42:27.138Z,2.92
2022-08-22T16:45:40.659Z,3.22
2022-08-22T16:48:42.880Z,2.85
2022-08-22T16:52:22.347Z,3.78
2022-08-22T16:55:30.151Z,2.80
2022-08-22T16:59:38.489Z,3.10
2022-08-22T17:03:18.168Z,3.13
2022-08-22T17:06:35.659Z,3.13
2022-08-22T17:09:58.547Z,2.90
2022-08-22T17:13:18.785Z,2.85
2022-08-22T17:16:31.757Z,3.10
2022-08-22T17:19:58.879Z,2.95
2022-08-22T17:23:29.530Z,3.15
2022-08-22T17:26:46.199Z,2.85
2022-08-22T17:30:09.277Z,3.08
2022-08-22T17:33:27.829Z,3.08
2022-08-22T17:37:02.771Z,3.03
2022-08-22T17:40:16.987Z,3.30
2022-08-22T17:43:33.430Z,3.00
2022-08-22T17:47:07.650Z,2.50
2022-08-22T17:50:13.399Z,3.55
2022-08-22T17:53:46.558Z,2.45
2022-08-22T17:57:18.358Z,2.40
2022-08-22T18:00:41.511Z,2.83
2022-08-22T18:03:57.025Z,2.28
2022-08-22T18:07:24.426Z,3.08
2022-08-22T18:10:45.083Z,2.90
2022-08-22T18:14:04.866Z,2.70
2022-08-22T18:17:37.553Z,2.90
2022-08-22T18:20:51.450Z,2.95
2022-08-22T18:24:26.750Z,2.80
2022-08-22T18:27:51.481Z,2.33
2022-08-22T18:30:59.693Z,2.28
2022-08-22T18:34:23.102Z,2.60
2022-08-22T18:37:31.070Z,2.92
2022-08-22T18:40:49.893Z,2.55
2022-08-22T18:43:52.486Z,2.38
2022-08-22T18:46:57.797Z,2.53
2022-08-22T18:50:22.647Z,2.10
2022-08-22T18:53:37.737Z,2.70
2022-08-22T18:57:05.557Z,2.97
2022-08-22T19:00:16.823Z,2.70
2022-08-22T19:03:53.034Z,2.65
2022-08-22T19:07:12.457Z,2.15
2022-08-22T19:10:32.965Z,2.28
2022-08-22T19:13:56.421Z,2.58
2022-08-22T19:17:01.012Z,2.50
2022-08-22T19:20:27.718Z,2.13
2022-08-22T19:23:32.675Z,2.67
2022-08-22T19:26:41.201Z,2.60
2022-08-22T19:29:42.982Z,2.42
2022-08-22T19:32:44.724Z,2.40
2022-08-22T19:35:49.481Z,2.88
2022-08-22T19:38:51.237Z,2.60
2022-08-22T19:41:56.827Z,3.03
2022-08-22T19:45:07.250Z,2.55
2022-08-22T19:48:14.095Z,2.25
2022-08-22T19:51:28.263Z,2.60
2022-08-22T19:54:33.402Z,2.20
2022-08-22T19:57:40.408Z,2.30
2022-08-22T20:00:53.954Z,2.28
2022-08-22T20:04:09.435Z,2.45
2022-08-22T20:07:26.448Z,2.60
2022-08-22T20:10:53.813Z,2.03
2022-08-22T20:14:11.081Z,2.08
2022-08-22T20:17:25.082Z,2.50
2022-08-22T20:20:30.577Z,2.30
2022-08-22T20:23:37.323Z,2.10
2022-08-22T20:26:52.133Z,2.22
2022-08-22T20:30:25.340Z,2.33
2022-08-22T20:33:34.487Z,2.47
2022-08-22T20:36:36.652Z,2.20
2022-08-22T20:39:58.542Z,2.10
2022-08-22T20:43:10.750Z,2.35
2022-08-22T20:46:32.215Z,2.35
2022-08-22T20:49:45.328Z,1.90
2022-08-22T20:52:54.221Z,2.13
2022-08-22T20:55:56.409Z,2.47
2022-08-22T20:59:01.210Z,1.95
2022-08-22T21:02:12.204Z,2.13
2022-08-22T21:05:13.969Z,2.50
2022-08-22T21:08:24.684Z,2.00
2022-08-22T21:11:40.448Z,2.17
2022-08-22T21:14:46.329Z,2.38
2022-08-22T21:17:50.456Z,2.15
2022-08-22T21:20:52.482Z,2.35
2022-08-22T21:24:06.566Z,2.67
2022-08-22T21:27:10.527Z,2.17
2022-08-22T21:30:23.091Z,2.35
2022-08-22T21:33:25.388Z,2.58
2022-08-22T21:36:30.330Z,2.42
2022-08-22T21:39:36.079Z,2.03
2022-08-22T21:42:40.890Z,2.30
2022-08-22T21:45:44.228Z,2.47
2022-08-22T21:49:02.553Z,2.72
2022-08-22T21:52:04.457Z,2.38
2022-08-22T21:55:24.803Z,2.28
2022-08-22T21:58:35.133Z,2.30
2022-08-22T22:01:38.906Z,2.40
2022-08-22T22:04:44.633Z,2.33
2022-08-22T22:07:47.724Z,1.98
2022-08-22T22:10:50.490Z,2.35
2022-08-22T22:13:52.355Z,2.15
2022-08-22T22:16:54.186Z,2.60
2022-08-22T22:19:55.950Z,2.00
2022-08-22T22:22:57.954Z,2.53
2022-08-22T22:26:02.463Z,2.30
2022-08-22T22:29:04.301Z,2.40
2022-08-22T22:32:07.254Z,2.50
2022-08-22T22:35:09.710Z,2.00
2022-08-22T22:38:20.561Z,2.35
2022-08-22T22:41:25.773Z,2.20
2022-08-22T22:44:27.702Z,2.55
2022-08-22T22:47:31.450Z,2.25
2022-08-22T22:50:33.931Z,2.25
2022-08-22T22:53:40.179Z,2.70
2022-08-22T22:56:43.378Z,2.28
2022-08-22T22:59:50.675Z,2.83
2022-08-22T23:02:52.965Z,2.45
2022-08-22T23:05:54.722Z,2.55
2022-08-22T23:08:57.703Z,2.30
2022-08-22T23:12:00.457Z,2.05
2022-08-22T23:15:02.396Z,2.05
2022-08-22T23:18:04.337Z,1.90
2022-08-22T23:21:20.714Z,2.30
2022-08-22T23:24:23.717Z,2.25
2022-08-22T23:27:25.468Z,2.20
2022-08-22T23:30:27.290Z,1.90
2022-08-22T23:33:29.165Z,1.95
2022-08-22T23:36:30.966Z,1.88
2022-08-22T23:39:34.467Z,2.03
2022-08-22T23:42:36.423Z,1.92
2022-08-22T23:45:38.314Z,2.20
2022-08-22T23:48:41.171Z,2.00
2022-08-22T23:51:43.767Z,2.45
2022-08-22T23:54:45.549Z,2.03
2022-08-22T23:57:47.349Z,1.75
